Golden Princess — ZCDA9 — position and weather

sailwx.info

Track history (hours):
 
Tides and Currents Weather Stations Pressure Air Temp Water Temp Dewpoint Dewpoint Depression Visibility Wind Speed Wind Dir Waves Ship Positions

Golden Princess

Operator: Princess Cruises

Last reported at 2014-Nov-28 22:29 UTC. Time now 2014-Nov-28 22:53 UTC.
Position N 34°24' W 119°41'.

Length 289.6 m; beam 36 m; draft 8.5 m.

Type: Ship. MMSI: 310344000.

Date/timePositionNaut miles runAvg speedWind from/ knotsBaromVisibWave heightAir tempDewpointWater temp
2014-Nov-28 22:29N 34°24' W 119°41'0 0.0
2014-Nov-28 21:32N 34°24' W 119°41'0 0.0
2014-Nov-28 20:29N 34°24' W 119°41'0 0.0
2014-Nov-28 19:28N 34°24' W 119°41'0 0.0
2014-Nov-28 18:31N 34°24' W 119°41'0 0.1
2014-Nov-28 17:33N 34°24' W 119°41'0 0.1
2014-Nov-28 16:33N 34°24' W 119°41'0 0.0
2014-Nov-28 15:32N 34°24' W 119°41'0 0.0
2014-Nov-28 14:32N 34°24' W 119°41'6 6.1
2014-Nov-28 13:33N 34°18' W 119°43'37 9.1
2014-Nov-28 09:33N 34°19' W 120°28'1110.7
2014-Nov-28 08:33N 34°22' W 120°40'4 6.9
2014-Nov-28 08:00N 34°18' W 120°42'1124.1 330 / 191017.710.8 16.014.318.0
2014-Nov-28 07:33N 34°24' W 120°52'8 8.3
2014-Nov-28 06:33N 34°20' W 121°01'1010.1
2014-Nov-28 05:33N 34°11' W 121°04'1010.0
2014-Nov-28 04:33N 34°01' W 121°03'10 9.5
2014-Nov-28 03:33N 33°51' W 120°60'9 9.4
2014-Nov-28 02:33N 33°45' W 120°52'10 9.6
2014-Nov-28 01:33N 33°37' W 120°44'10 9.7
2014-Nov-28 00:33N 33°30' W 120°36'9 9.3
2014-Nov-27 23:33N 33°23' W 120°29'1010.0
2014-Nov-27 22:33N 33°16' W 120°21'1110.5
2014-Nov-27 21:33N 33°08' W 120°12'1110.6
2014-Nov-27 20:32N 33°00' W 120°04'1018.7
2014-Nov-27 20:00N 32°54' W 119°54'1 2.2 300 / 161021.610.8 17.714.819.0
2014-Nov-27 19:33N 32°53' W 119°55'1010.1
2014-Nov-27 18:33N 32°49' W 119°44'1010.0
2014-Nov-27 17:33N 32°44' W 119°33'10 9.9
2014-Nov-27 16:33N 32°40' W 119°23'10 9.8
2014-Nov-27 15:33N 32°35' W 119°12'1010.0
2014-Nov-27 14:33N 32°31' W 119°02'611.4
2014-Nov-27 14:00N 32°30' W 118°54'4 9.1 290 / 141018.810.8 18.516.920.0
2014-Nov-27 13:33N 32°27' W 118°51'1010.0
2014-Nov-27 12:33N 32°22' W 118°41'1526.2
2014-Nov-27 12:00N 32°18' W 118°24'511.5 330 / 161021.210.8 18.816.820.0
2014-Nov-27 11:33N 32°20' W 118°29'10 9.9
2014-Nov-27 10:33N 32°20' W 118°18'10 9.8
2014-Nov-27 09:33N 32°22' W 118°06'1010.3
2014-Nov-27 08:33N 32°28' W 117°56'713.0
2014-Nov-27 08:00N 32°30' W 117°48'818.6 290 / 141022.610.8 18.816.820.0
2014-Nov-27 07:33N 32°37' W 117°52'1010.3
2014-Nov-27 06:33N 32°48' W 117°51'10 9.7
2014-Nov-27 05:33N 32°57' W 117°52'1010.1
2014-Nov-27 04:33N 33°06' W 117°58'1010.3
2014-Nov-27 03:33N 33°15' W 118°04'1110.5
2014-Nov-27 02:33N 33°25' W 118°09'1010.5
2014-Nov-27 01:33N 33°35' W 118°13'10 9.6
2014-Nov-27 00:33N 33°44' W 118°16'1 1.1
2014-Nov-26 23:32N 33°45' W 118°17'0 0.0
2014-Nov-26 22:31N 33°45' W 118°17'0 0.0
2014-Nov-26 21:31N 33°45' W 118°17'0 0.0
2014-Nov-26 20:33N 33°45' W 118°17'0 0.0
2014-Nov-26 19:33N 33°45' W 118°17'0 0.0
2014-Nov-26 18:33N 33°45' W 118°17'0 0.0
2014-Nov-26 17:32N 33°45' W 118°17'0 0.0
2014-Nov-26 16:32N 33°45' W 118°17'0 0.0
2014-Nov-26 15:33N 33°45' W 118°17'0 0.0
2014-Nov-26 14:32N 33°45' W 118°17'4 4.4
2014-Nov-26 13:33N 33°41' W 118°14'1111.3
2014-Nov-26 12:34N 33°31' W 118°08'1111.1
2014-Nov-26 11:34N 33°21' W 118°03'1110.6
2014-Nov-26 10:33N 33°11' W 117°59'1110.9
2014-Nov-26 09:33N 33°01' W 117°53'1111.0
2014-Nov-26 08:34N 32°51' W 117°49'1018.2
2014-Nov-26 08:00N 32°42' W 117°42'510.5 340 / 101025.310.8 20.013.020.0
2014-Nov-26 07:33N 32°40' W 117°47'1111.2
2014-Nov-26 06:33N 32°30' W 117°40'1414.1
2014-Nov-26 05:33N 32°18' W 117°31'2813.6
2014-Nov-26 03:30N 32°01' W 117°05'1212.8
2014-Nov-26 02:32N 31°55' W 116°52'58 3.1
2014-Nov-25 08:00N 31°06' W 117°30'4210.9 010 / 271024.210.8 20.012.020.0
2014-Nov-25 04:09N 31°07' W 118°19'1710.8
2014-Nov-25 02:33N 31°07' W 118°39'1110.6
2014-Nov-25 01:33N 31°04' W 118°51'1110.8
2014-Nov-25 00:33N 30°59' W 119°02'9 9.3
2014-Nov-24 23:33N 31°06' W 119°09'9 9.1
2014-Nov-24 22:33N 31°11' W 119°18'1010.1
2014-Nov-24 21:32N 31°21' W 119°18'1510.3
2014-Nov-24 20:05N 31°36' W 119°18'558.4
2014-Nov-24 20:00N 31°36' W 119°12'717.0 350 / 101023.210.8 20.115.020.0
2014-Nov-24 19:33N 31°42' W 119°18'1010.4
2014-Nov-24 18:34N 31°52' W 119°18'10 9.9
2014-Nov-24 17:33N 32°02' W 119°15'1210.1
2014-Nov-24 16:18N 32°02' W 119°00'1210.0
2014-Nov-24 15:04N 32°02' W 118°46'510.0
2014-Nov-24 14:33N 32°02' W 118°40'10 9.8
2014-Nov-24 13:33N 32°02' W 118°28'10 9.8
2014-Nov-24 12:33N 32°02' W 118°17'10 9.6
2014-Nov-24 11:33N 32°02' W 118°05'9 9.4
2014-Nov-24 10:33N 32°10' W 117°59'1010.2
2014-Nov-24 09:33N 32°19' W 117°55'1110.5
2014-Nov-24 08:33N 32°29' W 117°51'1010.5
2014-Nov-24 07:33N 32°40' W 117°51'1010.2
2014-Nov-24 06:34N 32°50' W 117°51'10 9.8
2014-Nov-24 05:33N 32°60' W 117°53'1010.0
2014-Nov-24 04:33N 33°08' W 117°59'1010.1
2014-Nov-24 03:34N 33°17' W 118°05'1010.4
2014-Nov-24 02:33N 33°27' W 118°10'1010.5
2014-Nov-24 01:34N 33°36' W 118°14'9 8.6
2014-Nov-24 00:33N 33°45' W 118°16'0 0.2
2014-Nov-23 23:32N 33°45' W 118°17'0 0.0
2014-Nov-23 22:31N 33°45' W 118°17'0 0.0
2014-Nov-23 21:31N 33°45' W 118°17'0 0.0
2014-Nov-23 20:33N 33°45' W 118°17'0 0.0
2014-Nov-23 19:30N 33°45' W 118°17'0 0.0
2014-Nov-23 18:33N 33°45' W 118°17'0 0.0
2014-Nov-23 17:32N 33°45' W 118°17'0 0.0
2014-Nov-23 16:32N 33°45' W 118°17'0 0.0
2014-Nov-23 15:31N 33°45' W 118°17'0 0.0
2014-Nov-23 14:32N 33°45' W 118°17'20 8.4
2014-Nov-23 12:08N 33°27' W 118°06'810.9
2014-Nov-23 11:22N 33°19' W 118°03'1010.8
2014-Nov-23 10:24N 33°09' W 117°58'1011.4
2014-Nov-23 09:33N 33°01' W 117°53'1111.2
2014-Nov-23 08:33N 32°50' W 117°48'1526.8
2014-Nov-23 08:00N 32°36' W 117°42'511.4 300 / 61017.410.8 18.015.521.0
2014-Nov-23 07:33N 32°39' W 117°47'1110.9
2014-Nov-23 06:33N 32°30' W 117°40'1313.0
2014-Nov-23 05:34N 32°19' W 117°32'2913.6
2014-Nov-23 03:24N 32°01' W 117°04'1112.7
2014-Nov-23 02:30N 31°55' W 116°53'61 3.1
2014-Nov-22 07:00N 31°06' W 117°36'92 7.7 340 / 231017.910.8 18.014.621.0
2014-Nov-21 19:00N 31°48' W 119°12'78 8.3 300 / 271016.710.8 18.014.421.0
2014-Nov-21 09:31N 32°26' W 117°51'1010.3
2014-Nov-21 08:32N 32°37' W 117°50'1010.4
2014-Nov-21 07:34N 32°47' W 117°51'3 4.9
2014-Nov-21 07:00N 32°48' W 117°48'1022.2 280 / 211015.810.8 17.514.921.0
2014-Nov-21 06:33N 32°57' W 117°53'1010.1
2014-Nov-21 05:32N 33°06' W 117°59'1010.3
2014-Nov-21 04:33N 33°15' W 118°04'31 9.8
2014-Nov-21 01:26N 33°44' W 118°16'1 1.4
2014-Nov-21 00:33N 33°45' W 118°17'0 0.0
2014-Nov-20 23:32N 33°45' W 118°17'0 0.0
2014-Nov-20 22:32N 33°45' W 118°17'0 0.0
2014-Nov-20 21:31N 33°45' W 118°17'0 0.0
2014-Nov-20 20:31N 33°45' W 118°17'0 0.0
2014-Nov-20 19:33N 33°45' W 118°17'0 0.0
2014-Nov-20 18:33N 33°45' W 118°17'0 0.0
2014-Nov-20 17:33N 33°45' W 118°17'0 0.0
2014-Nov-20 16:29N 33°45' W 118°17'0 0.0
2014-Nov-20 15:32N 33°45' W 118°17'0 0.0
2014-Nov-20 14:28N 33°45' W 118°17'9 6.6
2014-Nov-20 13:09N 33°37' W 118°11'811.1
2014-Nov-20 12:27N 33°30' W 118°08'1430.6
2014-Nov-20 12:00N 33°18' W 118°00'4 7.8 290 / 101022.210.8 17.813.820.0
2014-Nov-20 11:29N 33°21' W 118°03'1110.8
2014-Nov-20 10:29N 33°11' W 117°59'910.1
2014-Nov-20 09:33N 33°02' W 117°54'1110.6
2014-Nov-20 08:33N 32°53' W 117°49'1221.3
2014-Nov-20 08:00N 32°42' W 117°42'4 9.9 310 / 101019.910.8 18.014.621.0
2014-Nov-20 07:33N 32°42' W 117°47'1110.7
2014-Nov-20 06:33N 32°32' W 117°42'1615.4
2014-Nov-20 05:33N 32°19' W 117°32'1513.9
2014-Nov-20 04:30N 32°10' W 117°19'1213.1
2014-Nov-20 03:33N 32°02' W 117°07'1312.8
2014-Nov-20 02:33N 31°56' W 116°54'11 0.9
2014-Nov-19 14:12N 31°46' W 116°48'710.9
2014-Nov-19 13:34N 31°43' W 116°55'1110.5
2014-Nov-19 12:33N 31°39' W 117°07'1730.9
2014-Nov-19 12:00N 31°24' W 117°18'6 3.5 310 / 41023.210.8 17.015.321.0
2014-Nov-19 10:25N 31°24' W 117°24'910.1
2014-Nov-19 09:33N 31°15' W 117°23'19 8.7
2014-Nov-19 07:23N 30°58' W 117°33'512.8
2014-Nov-19 07:00N 30°54' W 117°30'3413.7 060 / 21020.310.8 17.515.821.0
2014-Nov-19 04:29N 31°06' W 118°07'1010.3
2014-Nov-19 03:32N 31°06' W 118°19'1010.4
2014-Nov-19 02:33N 31°06' W 118°31'1010.3
2014-Nov-19 01:33N 31°06' W 118°43'1010.4
2014-Nov-19 00:33N 31°06' W 118°55'1110.2
2014-Nov-18 23:29N 31°06' W 119°08'4 7.6
2014-Nov-18 23:00N 31°06' W 119°12'   180 / 81022.810.8 19.015.320.0
Track history (hours):
 
Tides and Currents Weather Stations Pressure Air Temp Water Temp Dewpoint Dewpoint Depression Visibility Wind Speed Wind Dir Waves Ship Positions

Golden Princess

Operator: Princess Cruises

Last reported at 2014-Nov-28 22:29 UTC. Time now 2014-Nov-28 22:53 UTC.
Position N 34°24' W 119°41'.

Length 289.6 m; beam 36 m; draft 8.5 m.

Type: Ship. MMSI: 310344000.

Date/timePositionNaut miles runAvg speedWind from/ knotsBaromVisibWave heightAir tempDewpointWater temp
2014-Nov-28 22:29N 34°24' W 119°41'0 0.0
2014-Nov-28 21:32N 34°24' W 119°41'0 0.0
2014-Nov-28 20:29N 34°24' W 119°41'0 0.0
2014-Nov-28 19:28N 34°24' W 119°41'0 0.0
2014-Nov-28 18:31N 34°24' W 119°41'0 0.1
2014-Nov-28 17:33N 34°24' W 119°41'0 0.1
2014-Nov-28 16:33N 34°24' W 119°41'0 0.0
2014-Nov-28 15:32N 34°24' W 119°41'0 0.0
2014-Nov-28 14:32N 34°24' W 119°41'6 6.1
2014-Nov-28 13:33N 34°18' W 119°43'37 9.1
2014-Nov-28 09:33N 34°19' W 120°28'1110.7
2014-Nov-28 08:33N 34°22' W 120°40'4 6.9
2014-Nov-28 08:00N 34°18' W 120°42'1124.1 330 / 191017.710.8 16.014.318.0
2014-Nov-28 07:33N 34°24' W 120°52'8 8.3
2014-Nov-28 06:33N 34°20' W 121°01'1010.1
2014-Nov-28 05:33N 34°11' W 121°04'1010.0
2014-Nov-28 04:33N 34°01' W 121°03'10 9.5
2014-Nov-28 03:33N 33°51' W 120°60'9 9.4
2014-Nov-28 02:33N 33°45' W 120°52'10 9.6
2014-Nov-28 01:33N 33°37' W 120°44'10 9.7
2014-Nov-28 00:33N 33°30' W 120°36'9 9.3
2014-Nov-27 23:33N 33°23' W 120°29'1010.0
2014-Nov-27 22:33N 33°16' W 120°21'1110.5
2014-Nov-27 21:33N 33°08' W 120°12'1110.6
2014-Nov-27 20:32N 33°00' W 120°04'1018.7
2014-Nov-27 20:00N 32°54' W 119°54'1 2.2 300 / 161021.610.8 17.714.819.0
2014-Nov-27 19:33N 32°53' W 119°55'1010.1
2014-Nov-27 18:33N 32°49' W 119°44'1010.0
2014-Nov-27 17:33N 32°44' W 119°33'10 9.9
2014-Nov-27 16:33N 32°40' W 119°23'10 9.8
2014-Nov-27 15:33N 32°35' W 119°12'1010.0
2014-Nov-27 14:33N 32°31' W 119°02'611.4
2014-Nov-27 14:00N 32°30' W 118°54'4 9.1 290 / 141018.810.8 18.516.920.0
2014-Nov-27 13:33N 32°27' W 118°51'1010.0
2014-Nov-27 12:33N 32°22' W 118°41'1526.2
2014-Nov-27 12:00N 32°18' W 118°24'511.5 330 / 161021.210.8 18.816.820.0
2014-Nov-27 11:33N 32°20' W 118°29'10 9.9
2014-Nov-27 10:33N 32°20' W 118°18'10 9.8
2014-Nov-27 09:33N 32°22' W 118°06'1010.3
2014-Nov-27 08:33N 32°28' W 117°56'713.0
2014-Nov-27 08:00N 32°30' W 117°48'818.6 290 / 141022.610.8 18.816.820.0
2014-Nov-27 07:33N 32°37' W 117°52'1010.3
2014-Nov-27 06:33N 32°48' W 117°51'10 9.7
2014-Nov-27 05:33N 32°57' W 117°52'1010.1
2014-Nov-27 04:33N 33°06' W 117°58'1010.3
2014-Nov-27 03:33N 33°15' W 118°04'1110.5
2014-Nov-27 02:33N 33°25' W 118°09'1010.5
2014-Nov-27 01:33N 33°35' W 118°13'10 9.6
2014-Nov-27 00:33N 33°44' W 118°16'1 1.1
2014-Nov-26 23:32N 33°45' W 118°17'0 0.0
2014-Nov-26 22:31N 33°45' W 118°17'0 0.0
2014-Nov-26 21:31N 33°45' W 118°17'0 0.0
2014-Nov-26 20:33N 33°45' W 118°17'0 0.0
2014-Nov-26 19:33N 33°45' W 118°17'0 0.0
2014-Nov-26 18:33N 33°45' W 118°17'0 0.0
2014-Nov-26 17:32N 33°45' W 118°17'0 0.0
2014-Nov-26 16:32N 33°45' W 118°17'0 0.0
2014-Nov-26 15:33N 33°45' W 118°17'0 0.0
2014-Nov-26 14:32N 33°45' W 118°17'4 4.4
2014-Nov-26 13:33N 33°41' W 118°14'1111.3
2014-Nov-26 12:34N 33°31' W 118°08'1111.1
2014-Nov-26 11:34N 33°21' W 118°03'1110.6
2014-Nov-26 10:33N 33°11' W 117°59'1110.9
2014-Nov-26 09:33N 33°01' W 117°53'1111.0
2014-Nov-26 08:34N 32°51' W 117°49'1018.2
2014-Nov-26 08:00N 32°42' W 117°42'510.5 340 / 101025.310.8 20.013.020.0
2014-Nov-26 07:33N 32°40' W 117°47'1111.2
2014-Nov-26 06:33N 32°30' W 117°40'1414.1
2014-Nov-26 05:33N 32°18' W 117°31'2813.6
2014-Nov-26 03:30N 32°01' W 117°05'1212.8
2014-Nov-26 02:32N 31°55' W 116°52'58 3.1
2014-Nov-25 08:00N 31°06' W 117°30'4210.9 010 / 271024.210.8 20.012.020.0
2014-Nov-25 04:09N 31°07' W 118°19'1710.8
2014-Nov-25 02:33N 31°07' W 118°39'1110.6
2014-Nov-25 01:33N 31°04' W 118°51'1110.8
2014-Nov-25 00:33N 30°59' W 119°02'9 9.3
2014-Nov-24 23:33N 31°06' W 119°09'9 9.1
2014-Nov-24 22:33N 31°11' W 119°18'1010.1
2014-Nov-24 21:32N 31°21' W 119°18'1510.3
2014-Nov-24 20:05N 31°36' W 119°18'558.4
2014-Nov-24 20:00N 31°36' W 119°12'717.0 350 / 101023.210.8 20.115.020.0
2014-Nov-24 19:33N 31°42' W 119°18'1010.4
2014-Nov-24 18:34N 31°52' W 119°18'10 9.9
2014-Nov-24 17:33N 32°02' W 119°15'1210.1
2014-Nov-24 16:18N 32°02' W 119°00'1210.0
2014-Nov-24 15:04N 32°02' W 118°46'510.0
2014-Nov-24 14:33N 32°02' W 118°40'10 9.8
2014-Nov-24 13:33N 32°02' W 118°28'10 9.8
2014-Nov-24 12:33N 32°02' W 118°17'10 9.6
2014-Nov-24 11:33N 32°02' W 118°05'9 9.4
2014-Nov-24 10:33N 32°10' W 117°59'1010.2
2014-Nov-24 09:33N 32°19' W 117°55'1110.5
2014-Nov-24 08:33N 32°29' W 117°51'1010.5
2014-Nov-24 07:33N 32°40' W 117°51'1010.2
2014-Nov-24 06:34N 32°50' W 117°51'10 9.8
2014-Nov-24 05:33N 32°60' W 117°53'1010.0
2014-Nov-24 04:33N 33°08' W 117°59'1010.1
2014-Nov-24 03:34N 33°17' W 118°05'1010.4
2014-Nov-24 02:33N 33°27' W 118°10'1010.5
2014-Nov-24 01:34N 33°36' W 118°14'9 8.6
2014-Nov-24 00:33N 33°45' W 118°16'0 0.2
2014-Nov-23 23:32N 33°45' W 118°17'0 0.0
2014-Nov-23 22:31N 33°45' W 118°17'0 0.0
2014-Nov-23 21:31N 33°45' W 118°17'0 0.0
2014-Nov-23 20:33N 33°45' W 118°17'0 0.0
2014-Nov-23 19:30N 33°45' W 118°17'0 0.0
2014-Nov-23 18:33N 33°45' W 118°17'0 0.0
2014-Nov-23 17:32N 33°45' W 118°17'0 0.0
2014-Nov-23 16:32N 33°45' W 118°17'0 0.0
2014-Nov-23 15:31N 33°45' W 118°17'0 0.0
2014-Nov-23 14:32N 33°45' W 118°17'20 8.4
2014-Nov-23 12:08N 33°27' W 118°06'810.9
2014-Nov-23 11:22N 33°19' W 118°03'1010.8
2014-Nov-23 10:24N 33°09' W 117°58'1011.4
2014-Nov-23 09:33N 33°01' W 117°53'1111.2
2014-Nov-23 08:33N 32°50' W 117°48'1526.8
2014-Nov-23 08:00N 32°36' W 117°42'511.4 300 / 61017.410.8 18.015.521.0
2014-Nov-23 07:33N 32°39' W 117°47'1110.9
2014-Nov-23 06:33N 32°30' W 117°40'1313.0
2014-Nov-23 05:34N 32°19' W 117°32'2913.6
2014-Nov-23 03:24N 32°01' W 117°04'1112.7
2014-Nov-23 02:30N 31°55' W 116°53'61 3.1
2014-Nov-22 07:00N 31°06' W 117°36'92 7.7 340 / 231017.910.8 18.014.621.0
2014-Nov-21 19:00N 31°48' W 119°12'78 8.3 300 / 271016.710.8 18.014.421.0
2014-Nov-21 09:31N 32°26' W 117°51'1010.3
2014-Nov-21 08:32N 32°37' W 117°50'1010.4
2014-Nov-21 07:34N 32°47' W 117°51'3 4.9
2014-Nov-21 07:00N 32°48' W 117°48'1022.2 280 / 211015.810.8 17.514.921.0
2014-Nov-21 06:33N 32°57' W 117°53'1010.1
2014-Nov-21 05:32N 33°06' W 117°59'1010.3
2014-Nov-21 04:33N 33°15' W 118°04'31 9.8
2014-Nov-21 01:26N 33°44' W 118°16'1 1.4
2014-Nov-21 00:33N 33°45' W 118°17'0 0.0
2014-Nov-20 23:32N 33°45' W 118°17'0 0.0
2014-Nov-20 22:32N 33°45' W 118°17'0 0.0
2014-Nov-20 21:31N 33°45' W 118°17'0 0.0
2014-Nov-20 20:31N 33°45' W 118°17'0 0.0
2014-Nov-20 19:33N 33°45' W 118°17'0 0.0
2014-Nov-20 18:33N 33°45' W 118°17'0 0.0
2014-Nov-20 17:33N 33°45' W 118°17'0 0.0
2014-Nov-20 16:29N 33°45' W 118°17'0 0.0
2014-Nov-20 15:32N 33°45' W 118°17'0 0.0
2014-Nov-20 14:28N 33°45' W 118°17'9 6.6
2014-Nov-20 13:09N 33°37' W 118°11'811.1
2014-Nov-20 12:27N 33°30' W 118°08'1430.6
2014-Nov-20 12:00N 33°18' W 118°00'4 7.8 290 / 101022.210.8 17.813.820.0
2014-Nov-20 11:29N 33°21' W 118°03'1110.8
2014-Nov-20 10:29N 33°11' W 117°59'910.1
2014-Nov-20 09:33N 33°02' W 117°54'1110.6
2014-Nov-20 08:33N 32°53' W 117°49'1221.3
2014-Nov-20 08:00N 32°42' W 117°42'4 9.9 310 / 101019.910.8 18.014.621.0
2014-Nov-20 07:33N 32°42' W 117°47'1110.7
2014-Nov-20 06:33N 32°32' W 117°42'1615.4
2014-Nov-20 05:33N 32°19' W 117°32'1513.9
2014-Nov-20 04:30N 32°10' W 117°19'1213.1
2014-Nov-20 03:33N 32°02' W 117°07'1312.8
2014-Nov-20 02:33N 31°56' W 116°54'11 0.9
2014-Nov-19 14:12N 31°46' W 116°48'710.9
2014-Nov-19 13:34N 31°43' W 116°55'1110.5
2014-Nov-19 12:33N 31°39' W 117°07'1730.9
2014-Nov-19 12:00N 31°24' W 117°18'6 3.5 310 / 41023.210.8 17.015.321.0
2014-Nov-19 10:25N 31°24' W 117°24'910.1
2014-Nov-19 09:33N 31°15' W 117°23'19 8.7
2014-Nov-19 07:23N 30°58' W 117°33'512.8
2014-Nov-19 07:00N 30°54' W 117°30'3413.7 060 / 21020.310.8 17.515.821.0
2014-Nov-19 04:29N 31°06' W 118°07'1010.3
2014-Nov-19 03:32N 31°06' W 118°19'1010.4
2014-Nov-19 02:33N 31°06' W 118°31'1010.3
2014-Nov-19 01:33N 31°06' W 118°43'1010.4
2014-Nov-19 00:33N 31°06' W 118°55'1110.2
2014-Nov-18 23:29N 31°06' W 119°08'4 7.6
2014-Nov-18 23:00N 31°06' W 119°12'   180 / 81022.810.8 19.015.320.0

Dump ship's entire track history